Terminal Aerodrome Forecast
Issued by NWS Northern Indiana

Home | Current Version | Previous Version | Graphics & Text | Print | Product List | Glossary On
Versions: 1 2 3 4 5 6 7 8 9 10 11 12 13 14
264
FTUS43 KIWX 210531
TAFFWA
TAF
KFWA 210531Z 2106/2206 14008KT P6SM BKN200
     FM211200 20008KT 6SM BR VCSH SCT045 BKN100
     FM211500 24009KT 5SM -SHRA BR BKN025 OVC045
     FM212000 25008KT 5SM BR BKN025
     FM220300 VRB04KT 2SM BR BKN010=

USA.gov is the U.S. government's official web portal to all federal, state and local government web resources and services.